Time;durP1;ratioP1;P1;durP2;ratioP2;P2;SDS_P1;SDS_P2;PMS_P1;PMS_P2;Temp;Humidity;BMP_temperature;BMP_pressure;BME280_temperature;BME280_humidity;BME280_pressure;Samples;Min_cycle;Max_cycle;Signal;HPM_P1;HPM_P2
2021/07/14 00:01:37;;;;;;;8.63;1.40;;;15.10;99.90;;;;;;4963106;28;20401;-84
2021/07/14 00:04:03;;;;;;;3.20;1.40;;;15.00;99.90;;;;;;4961324;29;20094;-84
2021/07/14 00:06:28;;;;;;;2.90;1.40;;;14.90;99.90;;;;;;4976871;28;20042;-84
2021/07/14 00:08:54;;;;;;;5.72;1.40;;;14.90;99.90;;;;;;4962451;28;20091;-84
2021/07/14 00:11:19;;;;;;;3.20;1.50;;;14.90;99.90;;;;;;4962593;29;20370;-84
2021/07/14 00:22:10;;;;;;;1.98;1.08;;;14.90;99.90;;;;;;4984883;23;20061;-87
2021/07/14 00:24:37;;;;;;;4.25;1.45;;;15.30;99.90;;;;;;4959027;29;20115;-86
2021/07/14 00:27:06;;;;;;;2.22;1.20;;;14.90;99.90;;;;;;4978841;28;20038;-85
2021/07/14 00:29:35;;;;;;;3.17;1.42;;;14.90;99.90;;;;;;4980469;28;20054;-85
2021/07/14 00:32:02;;;;;;;2.22;1.17;;;14.90;99.90;;;;;;4971540;28;20031;-87
2021/07/14 00:34:28;;;;;;;2.65;1.13;;;14.90;99.90;;;;;;4960942;29;20117;-87
2021/07/14 00:36:54;;;;;;;2.97;1.00;;;14.90;99.90;;;;;;4947566;28;20079;-87
2021/07/14 00:39:19;;;;;;;4.53;1.40;;;14.90;99.90;;;;;;4960323;29;20024;-85
2021/07/14 00:41:45;;;;;;;4.53;1.23;;;14.90;99.90;;;;;;4959234;29;20027;-85
2021/07/14 00:44:10;;;;;;;5.78;1.50;;;14.90;99.90;;;;;;4959978;28;20481;-86
2021/07/14 00:46:38;;;;;;;5.65;1.80;;;14.80;99.90;;;;;;4960341;28;20027;-85
2021/07/14 00:49:04;;;;;;;3.45;1.50;;;14.80;99.90;;;;;;4961264;28;20050;-86
2021/07/14 00:51:30;;;;;;;4.43;1.38;;;14.80;99.90;;;;;;4959562;28;20058;-85
2021/07/14 00:53:58;;;;;;;4.72;1.80;;;14.70;99.90;;;;;;4960249;29;20104;-86
2021/07/14 00:56:27;;;;;;;4.13;1.30;;;14.70;99.90;;;;;;4959951;29;20023;-85
2021/07/14 00:58:54;;;;;;;2.83;1.30;;;14.70;99.90;;;;;;4960936;28;20518;-86
2021/07/14 01:01:21;;;;;;;3.10;1.27;;;14.70;99.90;;;;;;4960109;29;20023;-85
2021/07/14 01:04:28;;;;;;;2.85;1.38;;;14.80;99.90;;;;;;4960062;29;20690;-85
2021/07/14 01:07:13;;;;;;;3.40;1.58;;;14.60;99.90;;;;;;4886821;29;20036;-85
2021/07/14 01:09:42;;;;;;;2.80;1.23;;;14.50;99.90;;;;;;4884459;29;20171;-85
2021/07/14 01:12:19;;;;;;;3.63;1.52;;;14.40;99.90;;;;;;4938315;28;20050;-87
2021/07/14 01:15:02;;;;;;;5.13;1.42;;;14.40;99.90;;;;;;4975359;28;20413;-87
2021/07/14 01:17:31;;;;;;;3.78;1.52;;;14.30;99.90;;;;;;4959231;29;20027;-88
2021/07/14 01:20:17;;;;;;;4.75;1.60;;;14.40;99.90;;;;;;4957953;28;20023;-86
2021/07/14 01:22:52;;;;;;;4.72;1.35;;;14.40;99.90;;;;;;4958981;28;20035;-85
2021/07/14 01:25:36;;;;;;;2.33;1.38;;;14.40;99.90;;;;;;4962107;28;20011;-85
2021/07/14 01:28:03;;;;;;;2.92;1.40;;;14.40;99.90;;;;;;4976887;28;20081;-86
2021/07/14 01:30:29;;;;;;;2.80;1.38;;;14.40;99.90;;;;;;4977239;28;20026;-85
2021/07/14 01:32:57;;;;;;;4.35;1.60;;;14.40;99.90;;;;;;4960794;28;20027;-85
2021/07/14 01:35:29;;;;;;;5.93;1.73;;;14.40;99.90;;;;;;4957669;29;20518;-84
2021/07/14 01:37:55;;;;;;;4.03;1.52;;;14.40;99.90;;;;;;4957229;29;20035;-85
2021/07/14 01:40:23;;;;;;;2.75;1.42;;;14.50;99.90;;;;;;4958120;29;20023;-85
2021/07/14 01:42:54;;;;;;;8.52;2.13;;;14.30;99.90;;;;;;4959076;28;20106;-85
2021/07/14 01:45:20;;;;;;;4.75;1.80;;;14.30;99.90;;;;;;4958693;29;20031;-84
2021/07/14 01:47:48;;;;;;;6.07;1.75;;;14.30;99.90;;;;;;4955281;29;20087;-84
2021/07/14 01:50:16;;;;;;;5.05;1.83;;;14.30;99.90;;;;;;4956311;28;20454;-84
2021/07/14 01:52:42;;;;;;;4.72;1.45;;;14.40;99.90;;;;;;4954714;28;20027;-85
2021/07/14 01:55:10;;;;;;;3.35;1.63;;;14.60;99.90;;;;;;4956717;28;20042;-84
2021/07/14 01:57:37;;;;;;;4.43;1.98;;;14.40;99.90;;;;;;4953425;29;20928;-84
2021/07/14 02:00:10;;;;;;;3.72;1.65;;;14.50;99.90;;;;;;4953975;28;20028;-85
2021/07/14 02:02:55;;;;;;;6.15;1.95;;;14.30;99.90;;;;;;4957851;28;20450;-85
2021/07/14 02:05:21;;;;;;;11.63;2.08;;;14.30;99.90;;;;;;4973049;28;20027;-85
2021/07/14 02:07:47;;;;;;;5.28;1.40;;;14.30;99.90;;;;;;4954319;29;20031;-85
2021/07/14 02:10:14;;;;;;;6.15;1.73;;;14.10;99.90;;;;;;4961144;28;20034;-85
2021/07/14 02:12:43;;;;;;;7.43;2.00;;;14.20;99.90;;;;;;4951740;28;20023;-87
2021/07/14 02:15:10;;;;;;;3.30;1.52;;;14.10;99.90;;;;;;4953414;29;20027;-87
2021/07/14 02:17:42;;;;;;;6.90;1.88;;;14.10;99.90;;;;;;4959374;28;20412;-86
2021/07/14 02:20:12;;;;;;;5.70;1.90;;;14.10;99.90;;;;;;4964477;28;20027;-86
2021/07/14 02:22:38;;;;;;;3.63;1.70;;;14.00;99.90;;;;;;4959295;28;20031;-86
2021/07/14 02:25:06;;;;;;;4.65;1.80;;;14.10;99.90;;;;;;4958991;29;20045;-87
2021/07/14 02:27:32;;;;;;;4.38;2.03;;;14.10;99.90;;;;;;4958499;29;20027;-87
2021/07/14 02:29:58;;;;;;;9.70;2.25;;;14.10;99.90;;;;;;4957501;29;20054;-86
2021/07/14 02:32:24;;;;;;;3.63;1.60;;;14.00;99.90;;;;;;4955102;28;20048;-86
2021/07/14 02:34:53;;;;;;;4.18;1.92;;;14.00;99.90;;;;;;4959495;28;20039;-85
2021/07/14 02:37:51;;;;;;;5.75;2.15;;;14.00;99.90;;;;;;4954624;29;20032;-86
2021/07/14 02:40:24;;;;;;;4.68;1.90;;;14.10;99.90;;;;;;4939245;29;20151;-86
2021/07/14 02:42:54;;;;;;;4.68;1.90;;;14.20;99.90;;;;;;4974453;28;20112;-86
2021/07/14 02:45:21;;;;;;;4.03;1.55;;;14.20;99.90;;;;;;4958568;29;20516;-85
2021/07/14 02:47:47;;;;;;;4.78;1.83;;;14.30;99.90;;;;;;4959565;28;20102;-86
2021/07/14 02:50:20;;;;;;;6.70;1.70;;;14.30;99.90;;;;;;4958951;29;20429;-85
2021/07/14 02:52:49;;;;;;;3.13;1.52;;;14.30;99.90;;;;;;4958452;29;20027;-86
2021/07/14 02:55:20;;;;;;;6.85;1.88;;;14.30;99.90;;;;;;4958760;29;20034;-85
2021/07/14 02:57:50;;;;;;;4.20;1.65;;;14.40;99.90;;;;;;4959826;28;20031;-85
2021/07/14 03:00:16;;;;;;;4.93;1.55;;;14.40;99.90;;;;;;4960752;28;20042;-87
2021/07/14 03:02:45;;;;;;;4.22;1.50;;;14.50;99.90;;;;;;4959019;29;20030;-87
2021/07/14 03:05:11;;;;;;;3.90;1.67;;;14.40;99.90;;;;;;4963868;29;20023;-87
2021/07/14 03:07:38;;;;;;;6.32;1.90;;;14.40;99.90;;;;;;4964880;28;20039;-85
2021/07/14 03:10:04;;;;;;;3.22;1.70;;;14.40;99.90;;;;;;4963436;28;20031;-85
2021/07/14 03:12:31;;;;;;;5.78;2.10;;;14.40;99.90;;;;;;4964648;29;20700;-85
2021/07/14 03:14:58;;;;;;;3.60;1.77;;;14.30;99.90;;;;;;4964616;29;20062;-87
2021/07/14 03:17:30;;;;;;;5.90;1.90;;;14.40;99.90;;;;;;4961869;28;20521;-88
2021/07/14 03:19:56;;;;;;;3.50;1.77;;;14.30;99.90;;;;;;4962267;29;20020;-86
2021/07/14 03:22:23;;;;;;;3.97;1.50;;;14.40;99.90;;;;;;4961949;28;20031;-85
2021/07/14 03:24:50;;;;;;;5.65;1.70;;;14.40;99.90;;;;;;4963297;28;20110;-87
2021/07/14 03:27:16;;;;;;;5.00;1.80;;;14.40;99.90;;;;;;4979665;28;20041;-87
2021/07/14 03:29:46;;;;;;;4.57;1.75;;;14.40;99.90;;;;;;4968143;29;20027;-85
2021/07/14 03:32:12;;;;;;;4.50;1.90;;;14.50;99.90;;;;;;4969997;28;20050;-85
2021/07/14 03:34:38;;;;;;;4.68;1.77;;;14.50;99.90;;;;;;4968206;29;20106;-85
2021/07/14 03:37:06;;;;;;;4.93;1.60;;;14.40;99.90;;;;;;4969034;29;20039;-86
2021/07/14 03:39:42;;;;;;;4.20;1.35;;;14.50;99.90;;;;;;4970146;28;20031;-86
2021/07/14 03:42:16;;;;;;;4.40;1.90;;;14.50;99.90;;;;;;4971617;29;20090;-86
2021/07/14 03:44:47;;;;;;;7.22;1.73;;;14.40;99.90;;;;;;4970777;29;20034;-85
2021/07/14 03:47:18;;;;;;;3.63;1.30;;;14.50;99.90;;;;;;4968984;29;20039;-86
2021/07/14 03:49:45;;;;;;;5.32;1.70;;;14.40;99.90;;;;;;4964374;28;20042;-87
2021/07/14 03:52:13;;;;;;;3.42;1.50;;;14.40;99.90;;;;;;4962240;29;20038;-86
2021/07/14 03:54:39;;;;;;;5.75;1.98;;;14.40;99.90;;;;;;4964626;28;20046;-86
2021/07/14 03:57:05;;;;;;;3.90;1.60;;;14.40;99.90;;;;;;4964317;28;20046;-86
2021/07/14 03:59:31;;;;;;;8.18;1.80;;;14.40;99.90;;;;;;4963440;28;20023;-86
2021/07/14 04:01:57;;;;;;;5.90;1.60;;;14.40;99.90;;;;;;4960120;28;20047;-87
2021/07/14 04:04:23;;;;;;;7.50;1.70;;;14.40;99.90;;;;;;4956598;29;20020;-86
2021/07/14 04:06:55;;;;;;;4.40;1.75;;;14.30;99.90;;;;;;4960662;28;20412;-86
2021/07/14 04:09:22;;;;;;;4.38;2.17;;;14.10;99.90;;;;;;4956516;28;20030;-85
2021/07/14 04:11:55;;;;;;;8.38;2.90;;;14.10;99.90;;;;;;4977436;28;20043;-84
2021/07/14 04:14:21;;;;;;;4.60;2.45;;;14.10;99.90;;;;;;4962288;28;20490;-84
2021/07/14 04:16:47;;;;;;;9.57;2.13;;;14.10;99.90;;;;;;4963193;28;20047;-85
2021/07/14 04:19:13;;;;;;;5.80;2.20;;;14.20;99.90;;;;;;4960039;29;20034;-85
2021/07/14 04:21:38;;;;;;;4.25;1.80;;;14.20;99.90;;;;;;4958699;28;20019;-85
2021/07/14 04:24:05;;;;;;;3.92;2.03;;;14.20;99.90;;;;;;4973589;28;20031;-84
2021/07/14 04:26:31;;;;;;;6.57;2.50;;;14.20;99.90;;;;;;4958912;29;20027;-85
2021/07/14 04:28:57;;;;;;;3.53;2.00;;;14.40;99.90;;;;;;4953166;28;20040;-87
2021/07/14 04:31:25;;;;;;;3.13;1.75;;;14.40;99.90;;;;;;4951842;29;20136;-85
2021/07/14 04:33:51;;;;;;;3.25;1.85;;;14.40;99.90;;;;;;4958941;29;20031;-85
2021/07/14 04:36:16;;;;;;;5.78;2.00;;;14.40;99.90;;;;;;4958528;29;20027;-84
2021/07/14 04:38:42;;;;;;;4.43;1.65;;;14.50;99.90;;;;;;4957232;28;20039;-86
2021/07/14 04:41:08;;;;;;;5.68;1.60;;;14.50;99.90;;;;;;4968255;28;20063;-86
2021/07/14 04:43:34;;;;;;;4.05;1.70;;;14.60;99.90;;;;;;4956354;28;20019;-84
2021/07/14 04:45:59;;;;;;;8.18;1.70;;;14.60;99.90;;;;;;4952994;28;20054;-84
2021/07/14 04:48:25;;;;;;;3.65;1.70;;;14.60;99.90;;;;;;4954339;29;20031;-86
2021/07/14 04:50:51;;;;;;;4.38;1.92;;;14.60;99.90;;;;;;4955733;29;20035;-84
2021/07/14 04:53:17;;;;;;;3.92;1.77;;;14.70;99.90;;;;;;4955603;28;20031;-85
2021/07/14 04:55:43;;;;;;;3.70;2.00;;;14.70;99.90;;;;;;4953178;28;20047;-85
2021/07/14 04:58:09;;;;;;;3.33;1.90;;;14.60;99.90;;;;;;4954873;29;20035;-84
2021/07/14 05:00:34;;;;;;;3.90;2.47;;;14.70;99.90;;;;;;4953370;28;20034;-85
2021/07/14 05:03:00;;;;;;;6.30;1.95;;;14.80;99.90;;;;;;4966293;28;20024;-85
2021/07/14 05:05:26;;;;;;;3.22;1.85;;;14.80;99.90;;;;;;4954100;29;20027;-85
2021/07/14 05:07:51;;;;;;;5.75;2.05;;;14.80;99.90;;;;;;4953551;29;20065;-85
2021/07/14 05:10:20;;;;;;;3.10;1.80;;;14.80;99.90;;;;;;4956551;28;20115;-85
2021/07/14 05:12:46;;;;;;;3.85;1.80;;;14.80;99.90;;;;;;4954768;28;20038;-85
2021/07/14 05:15:12;;;;;;;4.90;1.70;;;14.90;99.90;;;;;;4967139;28;20450;-85
2021/07/14 05:17:38;;;;;;;4.60;1.95;;;14.90;99.90;;;;;;4956040;28;20038;-85
2021/07/14 05:20:05;;;;;;;5.38;1.92;;;14.90;99.90;;;;;;4969259;28;20505;-85
2021/07/14 05:22:31;;;;;;;7.03;1.80;;;14.70;99.90;;;;;;4952862;28;20441;-85
2021/07/14 05:24:56;;;;;;;3.95;1.70;;;14.70;99.90;;;;;;4952731;29;20093;-85
2021/07/14 05:27:22;;;;;;;5.35;1.92;;;14.70;99.90;;;;;;4953222;28;20089;-85
2021/07/14 05:29:47;;;;;;;4.38;2.00;;;14.70;99.90;;;;;;4951472;29;20110;-84
2021/07/14 05:32:13;;;;;;;6.18;2.15;;;14.80;99.90;;;;;;4952598;29;20031;-85
2021/07/14 05:34:39;;;;;;;5.28;2.08;;;14.80;99.90;;;;;;4951787;28;20158;-84
2021/07/14 05:37:04;;;;;;;5.40;1.60;;;14.80;99.90;;;;;;4953441;29;20082;-85
2021/07/14 05:39:30;;;;;;;2.65;1.55;;;14.90;99.90;;;;;;4951138;28;20046;-85
2021/07/14 05:41:55;;;;;;;5.03;2.53;;;14.90;99.90;;;;;;4954636;28;20144;-84
2021/07/14 05:44:21;;;;;;;4.15;1.50;;;14.90;99.90;;;;;;4954110;28;20531;-84
2021/07/14 05:46:46;;;;;;;3.85;1.83;;;15.00;99.90;;;;;;4954341;28;20031;-85
2021/07/14 05:49:13;;;;;;;4.03;1.85;;;15.00;99.90;;;;;;4951604;28;20046;-85
2021/07/14 05:51:38;;;;;;;7.60;1.73;;;15.00;99.90;;;;;;4952997;29;20059;-85
2021/07/14 05:54:05;;;;;;;2.85;1.70;;;15.00;99.90;;;;;;4953525;28;20054;-85
2021/07/14 05:56:30;;;;;;;5.95;2.08;;;15.10;99.90;;;;;;4954834;28;20524;-85
2021/07/14 05:58:56;;;;;;;3.25;1.50;;;15.20;99.90;;;;;;4954142;29;20023;-85
2021/07/14 06:01:22;;;;;;;3.20;1.40;;;15.20;99.90;;;;;;4949158;29;20027;-84
2021/07/14 06:03:48;;;;;;;4.82;2.05;;;15.10;99.90;;;;;;4949935;29;20079;-85
2021/07/14 06:06:15;;;;;;;5.15;2.08;;;15.10;99.90;;;;;;4967578;28;20030;-88
2021/07/14 06:08:41;;;;;;;6.18;2.10;;;15.00;99.90;;;;;;4951064;28;20015;-84
2021/07/14 06:11:07;;;;;;;6.07;2.10;;;15.00;99.90;;;;;;4951138;29;20038;-84
2021/07/14 06:13:33;;;;;;;5.47;2.03;;;15.00;99.90;;;;;;4951606;28;20531;-84
2021/07/14 06:15:59;;;;;;;4.22;1.90;;;15.00;99.90;;;;;;4951743;28;20031;-85
2021/07/14 06:18:24;;;;;;;6.30;1.90;;;15.00;99.90;;;;;;4951580;29;20034;-84
2021/07/14 06:20:50;;;;;;;5.00;1.77;;;14.90;99.90;;;;;;4953155;28;20552;-84
2021/07/14 06:23:16;;;;;;;4.18;1.92;;;15.00;99.90;;;;;;4951083;28;20035;-84
2021/07/14 06:25:42;;;;;;;3.53;1.70;;;14.90;99.90;;;;;;4952120;29;20049;-84
2021/07/14 06:28:12;;;;;;;4.65;2.13;;;14.90;99.90;;;;;;4954541;28;20454;-86
2021/07/14 06:30:39;;;;;;;5.30;1.80;;;15.00;99.90;;;;;;4957199;29;20095;-87
2021/07/14 06:33:04;;;;;;;4.72;1.75;;;14.90;99.90;;;;;;4954584;29;20030;-85
2021/07/14 06:35:31;;;;;;;4.75;2.47;;;14.90;99.90;;;;;;4955885;29;20024;-87
2021/07/14 06:37:57;;;;;;;3.50;1.70;;;14.80;99.90;;;;;;4954019;28;20351;-86
2021/07/14 06:40:24;;;;;;;9.20;3.25;;;14.80;99.90;;;;;;4953177;29;20039;-85
2021/07/14 06:42:50;;;;;;;9.80;2.17;;;14.70;99.90;;;;;;4951410;29;20027;-86
2021/07/14 06:45:16;;;;;;;4.38;1.70;;;14.80;99.90;;;;;;4966789;28;20020;-85
2021/07/14 06:47:42;;;;;;;4.03;1.85;;;14.80;99.90;;;;;;4939009;29;20028;-86
2021/07/14 06:50:10;;;;;;;5.22;1.90;;;14.80;99.90;;;;;;4954592;29;20027;-86
2021/07/14 06:52:38;;;;;;;3.95;2.03;;;14.80;99.90;;;;;;4956280;28;20069;-85
2021/07/14 06:55:05;;;;;;;6.35;2.03;;;14.90;99.90;;;;;;4952913;28;20130;-86
2021/07/14 06:57:31;;;;;;;4.50;1.90;;;14.90;99.90;;;;;;4938974;29;20060;-83
2021/07/14 06:59:56;;;;;;;6.68;2.42;;;14.90;99.90;;;;;;4939353;29;20023;-82
2021/07/14 07:02:22;;;;;;;5.93;2.15;;;14.80;99.90;;;;;;4953707;29;20106;-83
2021/07/14 07:04:48;;;;;;;5.00;1.70;;;14.90;99.90;;;;;;4938039;29;20052;-83
2021/07/14 07:07:14;;;;;;;8.90;3.20;;;15.00;99.90;;;;;;4934270;29;20067;-82
2021/07/14 07:09:39;;;;;;;6.70;1.83;;;15.00;99.90;;;;;;4934745;29;20052;-82
2021/07/14 07:12:05;;;;;;;4.10;1.70;;;14.90;99.90;;;;;;4967853;28;20039;-83
2021/07/14 07:14:31;;;;;;;5.95;2.20;;;14.90;99.90;;;;;;4953259;29;20121;-82
2021/07/14 07:16:57;;;;;;;5.78;1.83;;;14.90;99.90;;;;;;4964973;28;20030;-83
2021/07/14 07:19:22;;;;;;;6.60;2.05;;;14.90;99.90;;;;;;4965932;28;20031;-82
2021/07/14 07:21:50;;;;;;;5.50;1.77;;;14.90;99.90;;;;;;4952224;29;20102;-83
2021/07/14 07:24:15;;;;;;;5.85;2.15;;;14.90;99.90;;;;;;4945158;29;20054;-82
2021/07/14 07:26:44;;;;;;;5.05;2.00;;;14.90;99.90;;;;;;4934334;29;20031;-82
2021/07/14 07:29:10;;;;;;;4.47;1.83;;;15.00;99.90;;;;;;4951650;29;20031;-82
2021/07/14 07:31:35;;;;;;;5.30;1.90;;;15.00;99.90;;;;;;4954410;28;20027;-82
2021/07/14 07:34:01;;;;;;;6.13;1.85;;;15.10;99.90;;;;;;4953635;29;20034;-82
2021/07/14 07:36:27;;;;;;;3.97;1.70;;;15.20;99.90;;;;;;4952899;29;20031;-82
2021/07/14 07:38:53;;;;;;;3.83;2.05;;;15.20;99.90;;;;;;4953522;29;20030;-82
2021/07/14 07:41:20;;;;;;;8.85;2.67;;;15.20;99.90;;;;;;4954034;29;20448;-81
2021/07/14 07:43:46;;;;;;;5.30;2.30;;;15.20;99.90;;;;;;4953642;29;20082;-81
2021/07/14 07:46:11;;;;;;;4.35;2.03;;;15.30;99.90;;;;;;4952518;29;20481;-81
2021/07/14 07:48:37;;;;;;;3.55;1.92;;;15.30;99.90;;;;;;4953876;28;20027;-81
2021/07/14 07:51:05;;;;;;;5.90;2.42;;;15.30;99.90;;;;;;4953961;28;20068;-80
2021/07/14 07:53:31;;;;;;;5.50;2.08;;;15.10;99.90;;;;;;4952115;29;20023;-81
2021/07/14 07:55:56;;;;;;;5.28;2.45;;;15.10;99.90;;;;;;4952382;28;20034;-81
2021/07/14 07:58:22;;;;;;;5.20;2.00;;;15.00;99.90;;;;;;4956807;29;20054;-82
2021/07/14 08:00:48;;;;;;;5.90;2.30;;;15.10;99.90;;;;;;4957888;29;20055;-81
2021/07/14 08:03:14;;;;;;;6.93;2.13;;;15.10;99.90;;;;;;4955668;29;20031;-81
2021/07/14 08:05:41;;;;;;;6.70;2.38;;;15.10;99.90;;;;;;4957041;29;20030;-81
2021/07/14 08:08:07;;;;;;;4.75;2.15;;;15.10;99.90;;;;;;4956825;29;20553;-82
2021/07/14 08:10:33;;;;;;;4.95;2.00;;;15.10;99.90;;;;;;4956745;28;20035;-82
2021/07/14 08:12:59;;;;;;;4.88;2.10;;;15.20;99.90;;;;;;4955359;29;20051;-81
2021/07/14 08:15:24;;;;;;;3.97;1.88;;;15.10;99.90;;;;;;4956109;29;20027;-82
2021/07/14 08:17:50;;;;;;;8.48;2.28;;;15.20;99.90;;;;;;4972577;28;20061;-82
2021/07/14 08:20:16;;;;;;;3.75;1.95;;;15.30;99.90;;;;;;4968009;28;20031;-81
2021/07/14 08:22:42;;;;;;;3.90;2.20;;;15.30;99.90;;;;;;4957787;28;20055;-81
2021/07/14 08:25:10;;;;;;;5.68;2.20;;;15.40;99.90;;;;;;4960354;29;20402;-82
2021/07/14 08:27:37;;;;;;;4.90;2.03;;;15.30;99.90;;;;;;4958917;29;20150;-84
2021/07/14 08:30:07;;;;;;;5.72;1.95;;;15.40;99.90;;;;;;4960319;29;20528;-82
2021/07/14 08:32:33;;;;;;;4.10;2.30;;;15.50;99.90;;;;;;4957682;29;20035;-81
2021/07/14 08:34:59;;;;;;;3.10;1.80;;;15.50;99.90;;;;;;4971789;28;20039;-81
2021/07/14 08:37:25;;;;;;;5.43;2.15;;;15.60;99.90;;;;;;4971197;28;20027;-81
2021/07/14 08:39:52;;;;;;;7.43;2.05;;;15.70;99.90;;;;;;4955653;29;20034;-80
2021/07/14 08:42:20;;;;;;;4.07;2.10;;;15.70;99.90;;;;;;4957522;29;20027;-80
2021/07/14 08:44:47;;;;;;;3.20;1.85;;;15.70;99.90;;;;;;4952164;29;20023;-81
2021/07/14 08:47:18;;;;;;;7.65;1.80;;;15.70;99.90;;;;;;4942491;29;20059;-81
2021/07/14 08:49:47;;;;;;;4.32;1.70;;;15.70;99.90;;;;;;4959327;28;20030;-82
2021/07/14 08:52:14;;;;;;;8.13;2.00;;;15.90;99.90;;;;;;4956018;28;20174;-81
2021/07/14 08:54:43;;;;;;;3.70;1.95;;;15.90;99.90;;;;;;4957372;28;20031;-81
2021/07/14 08:57:14;;;;;;;4.22;1.95;;;16.00;99.90;;;;;;4940442;29;20062;-80
2021/07/14 08:59:40;;;;;;;5.93;2.08;;;16.00;99.90;;;;;;4956748;28;20050;-81
2021/07/14 09:02:15;;;;;;;2.90;1.52;;;15.90;99.90;;;;;;4956859;28;20039;-81
2021/07/14 09:04:46;;;;;;;5.05;1.60;;;15.90;99.90;;;;;;4972166;28;20131;-81
2021/07/14 09:07:15;;;;;;;3.85;1.63;;;15.80;99.90;;;;;;4958133;28;20039;-81
2021/07/14 09:09:44;;;;;;;3.75;2.00;;;15.90;99.90;;;;;;4957374;28;20590;-81
2021/07/14 09:12:11;;;;;;;3.05;1.88;;;16.00;99.90;;;;;;4956939;28;20035;-80
2021/07/14 09:14:42;;;;;;;6.82;2.03;;;16.00;99.90;;;;;;4958274;28;20031;-81
2021/07/14 09:17:22;;;;;;;4.28;2.00;;;16.00;99.90;;;;;;4957884;28;20063;-82
2021/07/14 09:20:24;;;;;;;3.92;2.10;;;16.10;99.90;;;;;;4957684;28;20027;-81
2021/07/14 09:23:05;;;;;;;;;;;16.20;99.90;;;;;;4899468;29;20047;-80
2021/07/14 09:25:52;;;;;;;7.30;2.30;;;16.40;99.90;;;;;;4958682;29;19914;-81
2021/07/14 09:28:20;;;;;;;4.38;1.90;;;16.40;99.90;;;;;;4956612;29;20082;-81
2021/07/14 09:30:57;;;;;;;6.28;2.10;;;16.40;99.90;;;;;;4956137;29;20062;-81
2021/07/14 09:33:23;;;;;;;4.70;1.85;;;16.40;99.90;;;;;;4939817;29;20039;-80
2021/07/14 09:35:52;;;;;;;6.43;2.22;;;16.50;99.90;;;;;;4956547;29;20031;-80
2021/07/14 09:38:21;;;;;;;3.63;1.60;;;16.60;99.90;;;;;;4955676;28;20034;-81
2021/07/14 09:40:51;;;;;;;4.82;2.08;;;16.70;99.90;;;;;;4954333;28;20027;-81
2021/07/14 09:43:22;;;;;;;5.18;2.10;;;16.70;99.90;;;;;;4954625;29;20046;-81
2021/07/14 09:46:05;;;;;;;5.60;1.90;;;16.70;99.90;;;;;;4955362;28;20039;-81
2021/07/14 09:48:35;;;;;;;4.03;2.08;;;16.70;99.90;;;;;;4954784;28;20074;-80
2021/07/14 09:51:09;;;;;;;5.07;2.03;;;16.80;99.90;;;;;;4955568;28;20039;-79
2021/07/14 09:53:36;;;;;;;4.40;1.80;;;16.80;99.90;;;;;;4955916;29;20173;-81
2021/07/14 09:56:21;;;;;;;5.68;1.83;;;16.90;99.90;;;;;;4956786;29;20031;-82
2021/07/14 09:58:47;;;;;;;4.95;1.98;;;17.00;99.90;;;;;;4955425;28;20039;-83
2021/07/14 10:01:16;;;;;;;5.20;1.90;;;17.10;99.90;;;;;;4956265;28;20441;-82
2021/07/14 10:03:52;;;;;;;3.38;1.60;;;17.30;99.90;;;;;;4956726;29;20029;-82
2021/07/14 10:06:24;;;;;;;5.47;2.00;;;17.50;99.90;;;;;;4955126;29;20489;-85
2021/07/14 10:08:50;;;;;;;5.97;2.05;;;17.60;99.90;;;;;;4976163;23;20205;-80
2021/07/14 10:11:21;;;;;;;5.45;1.95;;;17.70;99.90;;;;;;4989435;28;20058;-80
2021/07/14 10:13:51;;;;;;;4.80;1.75;;;18.00;99.90;;;;;;4980622;28;20039;-81
2021/07/14 10:16:18;;;;;;;7.35;1.92;;;18.00;99.90;;;;;;4979402;28;20058;-83
2021/07/14 10:18:54;;;;;;;4.50;1.85;;;18.30;99.90;;;;;;4985791;28;20019;-79
2021/07/14 10:21:20;;;;;;;5.40;2.10;;;18.40;99.90;;;;;;4976246;28;20015;-80
2021/07/14 10:23:46;;;;;;;6.25;1.73;;;18.40;99.90;;;;;;4976246;28;20042;-81
2021/07/14 10:26:11;;;;;;;4.78;1.88;;;18.60;99.90;;;;;;4971621;28;20062;-81
2021/07/14 10:28:37;;;;;;;3.63;1.70;;;18.50;99.90;;;;;;4977127;28;20074;-81
2021/07/14 10:31:04;;;;;;;5.55;1.75;;;18.50;99.90;;;;;;4973935;28;20118;-81
2021/07/14 10:33:33;;;;;;;4.90;1.40;;;18.60;99.90;;;;;;4980238;28;20492;-81
2021/07/14 10:36:01;;;;;;;4.03;1.70;;;18.60;99.90;;;;;;4987633;28;20019;-81
2021/07/14 10:38:28;;;;;;;5.05;1.60;;;18.50;99.90;;;;;;4980551;28;20431;-82
2021/07/14 10:40:56;;;;;;;3.40;1.48;;;18.70;99.90;;;;;;4966000;28;20030;-81
2021/07/14 10:43:28;;;;;;;3.60;1.50;;;18.70;99.90;;;;;;4968442;28;20027;-81
2021/07/14 10:45:54;;;;;;;4.32;1.45;;;19.00;99.90;;;;;;4973569;28;20405;-81
2021/07/14 10:48:24;;;;;;;4.40;1.38;;;19.20;99.90;;;;;;4969528;28;20035;-81
2021/07/14 10:50:52;;;;;;;2.58;1.25;;;19.10;99.90;;;;;;4970084;28;20512;-81
2021/07/14 10:53:18;;;;;;;3.33;1.30;;;19.30;99.90;;;;;;4964037;28;20238;-81
2021/07/14 10:55:46;;;;;;;2.78;1.00;;;18.90;99.90;;;;;;4972745;28;20027;-82
2021/07/14 10:58:16;;;;;;;4.55;1.10;;;19.30;99.90;;;;;;4964383;28;20027;-81
2021/07/14 11:00:43;;;;;;;1.90;1.00;;;19.50;99.90;;;;;;4967651;28;20031;-81
2021/07/14 11:03:36;;;;;;;4.53;1.10;;;19.50;99.90;;;;;;4969802;28;20475;-80
2021/07/14 11:06:04;;;;;;;3.92;1.05;;;19.60;99.90;;;;;;4970765;28;20015;-81
2021/07/14 11:08:47;;;;;;;6.55;1.17;;;19.80;99.90;;;;;;4968823;28;20037;-81
2021/07/14 11:11:21;;;;;;;2.63;1.00;;;20.30;99.90;;;;;;4969499;28;20397;-81
2021/07/14 11:14:05;;;;;;;2.85;1.00;;;20.70;99.90;;;;;;4973067;28;20019;-81
2021/07/14 11:16:38;;;;;;;2.30;0.90;;;20.80;99.90;;;;;;4970049;28;20038;-81
2021/07/14 11:19:17;;;;;;;2.17;0.98;;;20.80;99.90;;;;;;4964893;28;20035;-81
2021/07/14 11:21:53;;;;;;;2.25;0.90;;;21.00;99.90;;;;;;4968247;28;20049;-81
2021/07/14 11:24:41;;;;;;;3.45;0.88;;;21.60;99.90;;;;;;4965469;28;20029;-82
2021/07/14 11:27:23;;;;;;;2.42;0.60;;;21.80;99.90;;;;;;4969324;28;20027;-82
2021/07/14 11:30:01;;;;;;;1.50;0.65;;;22.00;99.90;;;;;;4963380;28;20528;-82
2021/07/14 11:32:33;;;;;;;1.10;0.60;;;21.90;99.90;;;;;;4971000;28;20158;-81
2021/07/14 11:35:14;;;;;;;1.65;0.55;;;21.80;99.90;;;;;;4970999;28;20033;-81
2021/07/14 11:37:54;;;;;;;2.05;0.70;;;21.50;99.90;;;;;;4973167;28;20066;-82
2021/07/14 11:40:25;;;;;;;0.95;0.43;;;21.60;99.90;;;;;;4961493;28;20073;-82
2021/07/14 11:42:57;;;;;;;2.38;0.70;;;21.80;99.90;;;;;;4976414;28;20019;-82
2021/07/14 11:45:35;;;;;;;;;;;22.10;99.90;;;;;;4964838;28;20020;-82
2021/07/14 11:48:25;;;;;;;1.05;0.50;;;22.20;99.90;;;;;;4976553;28;19914;-82
2021/07/14 11:50:56;;;;;;;0.93;0.40;;;22.10;99.90;;;;;;4976243;28;20102;-82
2021/07/14 11:53:32;;;;;;;2.85;0.70;;;21.90;99.90;;;;;;4975410;28;20034;-82
2021/07/14 11:55:58;;;;;;;1.00;0.40;;;21.70;99.90;;;;;;4976089;28;20039;-82
2021/07/14 11:58:42;;;;;;;1.60;0.60;;;21.80;99.90;;;;;;4975010;28;20027;-82
2021/07/14 12:01:17;;;;;;;1.00;0.43;;;21.90;99.90;;;;;;4977637;28;20232;-80
2021/07/14 12:04:01;;;;;;;1.70;0.45;;;21.90;99.90;;;;;;4995493;28;20039;-81
2021/07/14 12:07:05;;;;;;;1.83;0.40;;;21.90;99.90;;;;;;4979513;28;20785;-81
2021/07/14 12:09:37;;;;;;;0.90;0.40;;;21.60;99.90;;;;;;4978985;28;20108;-80
2021/07/14 12:12:06;;;;;;;1.95;0.52;;;21.50;99.90;;;;;;4979029;28;20042;-81
2021/07/14 12:14:37;;;;;;;1.95;0.40;;;21.60;99.90;;;;;;4972812;28;20038;-81
2021/07/14 12:17:15;;;;;;;0.95;0.38;;;21.70;99.90;;;;;;4968575;28;20035;-81
2021/07/14 12:19:44;;;;;;;0.98;0.50;;;21.90;99.90;;;;;;4973746;28;20101;-81
2021/07/14 12:22:19;;;;;;;1.13;0.43;;;22.10;99.90;;;;;;4980035;28;20031;-81
2021/07/14 12:24:55;;;;;;;0.95;0.43;;;22.00;99.90;;;;;;4980598;28;20065;-81
2021/07/14 12:27:27;;;;;;;1.17;0.57;;;22.00;99.90;;;;;;4981628;28;20069;-82
2021/07/14 12:30:14;;;;;;;2.13;0.55;;;21.80;99.90;;;;;;4966946;28;20077;-82
2021/07/14 12:32:55;;;;;;;1.52;0.55;;;22.00;99.90;;;;;;4975541;28;20490;-81
2021/07/14 12:35:28;;;;;;;;;;;22.00;99.90;;;;;;4972976;28;20394;-83
2021/07/14 12:37:54;;;;;;;;;;;22.00;99.90;;;;;;4973639;28;20273;-82
2021/07/14 12:40:33;;;;;;;;;;;22.10;99.90;;;;;;4974680;28;19910;-82
2021/07/14 12:43:03;;;;;;;;;;;22.20;99.90;;;;;;4976958;28;20001;-82
2021/07/14 12:45:31;;;;;;;;;;;22.30;99.90;;;;;;4974614;28;19918;-84
2021/07/14 12:48:00;;;;;;;;;;;22.40;99.90;;;;;;4975017;28;20424;-82
2021/07/14 12:50:26;;;;;;;;;;;22.50;99.90;;;;;;4970197;28;19917;-83
2021/07/14 12:52:59;;;;;;;;;;;22.80;99.90;;;;;;4962283;28;19906;-83
2021/07/14 12:55:26;;;;;;;;;;;22.60;99.90;;;;;;4972630;28;20353;-83
2021/07/14 12:57:52;;;;;;;;;;;22.60;99.90;;;;;;4959994;28;19988;-81
2021/07/14 13:00:18;;;;;;;;;;;22.50;99.90;;;;;;4961579;28;19910;-82
2021/07/14 13:02:45;;;;;;;;;;;22.70;99.90;;;;;;4956010;28;20223;-80
2021/07/14 13:05:13;;;;;;;;;;;23.10;99.90;;;;;;4975422;28;19945;-83
2021/07/14 13:07:38;;;;;;;;;;;23.70;99.90;;;;;;4963524;28;19938;-83
2021/07/14 13:10:06;;;;;;;;;;;24.00;99.90;;;;;;4971819;28;20512;-83